Time;durP1;ratioP1;P1;durP2;ratioP2;P2;SDS_P1;SDS_P2;PMS_P1;PMS_P2;Temp;Humidity;BMP_temperature;BMP_pressure;BME280_temperature;BME280_humidity;BME280_pressure;Samples;Min_cycle;Max_cycle;Signal;HPM_P1;HPM_P2
2021/08/11 00:01:43;;;;;;;6.07;2.30;;;;;11.50;101306.00;;;;5056563;28;20590;-71
2021/08/11 00:04:10;;;;;;;2.30;1.60;;;;;11.40;101298.00;;;;5062105;28;20325;-71
2021/08/11 00:06:36;;;;;;;5.22;2.00;;;;;11.40;101307.00;;;;5057963;28;20496;-70
2021/08/11 00:09:03;;;;;;;8.27;2.17;;;;;11.40;101300.00;;;;5056471;28;20021;-73
2021/08/11 00:11:32;;;;;;;3.05;1.85;;;;;11.40;101299.00;;;;5060526;28;20035;-74
2021/08/11 00:13:59;;;;;;;8.32;2.00;;;;;11.40;101297.00;;;;5059061;28;20391;-71
2021/08/11 00:16:26;;;;;;;2.88;1.90;;;;;11.40;101328.00;;;;5049251;28;20381;-71
2021/08/11 00:18:54;;;;;;;7.65;1.73;;;;;11.40;101317.00;;;;5049181;28;20381;-70
2021/08/11 00:21:22;;;;;;;8.40;1.58;;;;;11.40;101323.00;;;;5049088;28;20029;-72
2021/08/11 00:23:49;;;;;;;4.72;1.80;;;;;11.40;101329.00;;;;5048532;28;20040;-72
2021/08/11 00:26:15;;;;;;;5.07;1.70;;;;;11.40;101331.00;;;;5056780;28;20399;-72
2021/08/11 00:28:42;;;;;;;6.05;1.60;;;;;11.40;101326.00;;;;5058480;28;20021;-71
2021/08/11 00:31:09;;;;;;;4.25;1.48;;;;;11.40;101347.00;;;;5055720;28;20062;-69
2021/08/11 00:33:36;;;;;;;6.82;1.45;;;;;11.40;101322.00;;;;5059288;28;20526;-70
2021/08/11 00:36:03;;;;;;;5.95;1.60;;;;;11.40;101325.00;;;;5063779;28;20028;-71
2021/08/11 00:38:30;;;;;;;4.18;1.73;;;;;11.40;101339.00;;;;5065341;28;20586;-71
2021/08/11 00:40:56;;;;;;;4.65;1.55;;;;;11.40;101333.00;;;;5066284;28;20078;-71
2021/08/11 00:43:23;;;;;;;5.65;1.67;;;;;11.30;101328.00;;;;5069222;28;20028;-72
2021/08/11 00:45:49;;;;;;;6.32;1.30;;;;;11.30;101331.00;;;;5068507;28;20024;-71
2021/08/11 00:48:17;;;;;;;6.70;1.33;;;;;11.30;101345.00;;;;5068713;28;20033;-69
2021/08/11 00:50:44;;;;;;;5.32;1.73;;;;;11.30;101342.00;;;;5068460;28;20032;-73
2021/08/11 00:53:15;;;;;;;8.63;1.80;;;;;11.30;101347.00;;;;5068632;28;20017;-71
2021/08/11 00:55:42;;;;;;;6.65;1.80;;;;;11.30;101348.00;;;;5069273;28;20036;-69
2021/08/11 00:58:12;;;;;;;8.07;1.40;;;;;11.30;101348.00;;;;5069089;28;20030;-71
2021/08/11 01:00:45;;;;;;;2.95;1.63;;;;;11.30;101359.00;;;;5057246;28;20029;-71
2021/08/11 01:03:18;;;;;;;9.02;1.80;;;;;11.20;101365.00;;;;5048012;28;20119;-70
2021/08/11 01:05:46;;;;;;;8.65;1.80;;;;;11.30;101352.00;;;;5048595;28;20056;-70
2021/08/11 01:08:13;;;;;;;8.23;1.85;;;;;11.20;101359.00;;;;5048369;28;20041;-73
2021/08/11 01:10:41;;;;;;;16.27;2.33;;;;;11.20;101364.00;;;;5048705;28;20435;-69
2021/08/11 01:13:09;;;;;;;7.93;1.90;;;;;11.20;101352.00;;;;5049824;28;20037;-69
2021/08/11 01:15:37;;;;;;;9.85;2.05;;;;;11.20;101365.00;;;;5056914;28;20033;-69
2021/08/11 01:18:04;;;;;;;6.97;2.20;;;;;11.10;101365.00;;;;5048449;28;20025;-70
2021/08/11 01:20:36;;;;;;;5.07;1.90;;;;;11.20;101385.00;;;;5048304;28;20036;-72
2021/08/11 01:23:11;;;;;;;7.45;1.80;;;;;11.20;101361.00;;;;5048357;28;20079;-69
2021/08/11 01:25:44;;;;;;;4.80;1.67;;;;;11.20;101369.00;;;;5048384;28;20037;-67
2021/08/11 01:28:25;;;;;;;11.18;2.58;;;;;11.20;101372.00;;;;5047692;28;20029;-70
2021/08/11 01:31:10;;;;;;;10.43;2.08;;;;;11.20;101376.00;;;;5048245;28;20025;-72
2021/08/11 01:33:45;;;;;;;11.43;2.20;;;;;11.20;101383.00;;;;5047673;28;20028;-72
2021/08/11 01:36:23;;;;;;;9.10;1.95;;;;;11.20;101385.00;;;;5047918;28;20025;-71
2021/08/11 01:39:06;;;;;;;7.40;1.88;;;;;11.30;101383.00;;;;5047497;28;20056;-72
2021/08/11 01:41:44;;;;;;;8.07;2.10;;;;;11.30;101396.00;;;;5049825;28;20028;-72
2021/08/11 01:44:11;;;;;;;6.32;2.08;;;;;11.30;101391.00;;;;5068166;28;20077;-68
2021/08/11 01:46:42;;;;;;;6.30;2.08;;;;;11.30;101378.00;;;;5067565;28;20451;-69
2021/08/11 01:49:13;;;;;;;11.75;2.50;;;;;11.30;101396.00;;;;5056887;28;20733;-72
2021/08/11 01:51:45;;;;;;;8.20;1.75;;;;;11.30;101389.00;;;;5047391;28;20464;-72
2021/08/11 01:54:12;;;;;;;6.65;1.70;;;;;11.30;101404.00;;;;5047785;28;20031;-70
2021/08/11 01:56:41;;;;;;;10.68;1.98;;;;;11.30;101393.00;;;;5047243;28;20036;-70
2021/08/11 01:59:09;;;;;;;9.38;2.00;;;;;11.30;101398.00;;;;5046806;28;20029;-73
2021/08/11 02:01:41;;;;;;;8.18;1.98;;;;;11.30;101411.00;;;;5066228;28;20070;-72
2021/08/11 02:04:09;;;;;;;9.43;1.80;;;;;11.30;101410.00;;;;5067453;28;20533;-71
2021/08/11 02:06:39;;;;;;;7.35;1.90;;;;;11.30;101410.00;;;;5066821;28;20131;-69
2021/08/11 02:09:07;;;;;;;16.67;2.15;;;;;11.30;101406.00;;;;5068053;28;20044;-70
2021/08/11 02:11:40;;;;;;;8.45;1.65;;;;;11.30;101409.00;;;;5067486;28;20336;-69
2021/08/11 02:14:11;;;;;;;13.45;2.00;;;;;11.30;101420.00;;;;5066628;28;20036;-73
2021/08/11 02:16:42;;;;;;;8.57;1.63;;;;;11.30;101413.00;;;;5066852;28;20041;-70
2021/08/11 02:19:10;;;;;;;7.32;1.60;;;;;11.20;101418.00;;;;5048718;28;20040;-69
2021/08/11 02:21:38;;;;;;;12.75;2.08;;;;;11.20;101430.00;;;;5066933;28;20063;-73
2021/08/11 02:24:08;;;;;;;7.72;1.63;;;;;11.20;101422.00;;;;5067277;28;20111;-73
2021/08/11 02:26:47;;;;;;;7.50;1.60;;;;;11.20;101411.00;;;;5065657;28;20090;-70
2021/08/11 02:29:45;;;;;;;8.52;1.48;;;;;11.10;101431.00;;;;5066527;28;20024;-72
2021/08/11 02:32:19;;;;;;;10.95;1.58;;;;;11.10;101433.00;;;;5061169;28;20036;-70
2021/08/11 02:35:01;;;;;;;7.53;1.80;;;;;11.00;101422.00;;;;5066905;28;20468;-69
2021/08/11 02:37:39;;;;;;;17.23;1.90;;;;;11.00;101404.00;;;;5067239;28;20495;-70
2021/08/11 02:40:09;;;;;;;9.68;1.40;;;;;11.00;101431.00;;;;5066973;28;20032;-69
2021/08/11 02:42:43;;;;;;;5.53;1.90;;;;;11.00;101427.00;;;;5066286;28;20063;-70
2021/08/11 02:45:14;;;;;;;6.93;1.23;;;;;11.00;101423.00;;;;5048249;28;20518;-71
2021/08/11 02:47:42;;;;;;;6.47;1.20;;;;;11.00;101430.00;;;;5066852;28;20109;-69
2021/08/11 02:50:10;;;;;;;5.45;1.25;;;;;10.90;101411.00;;;;5066601;28;20047;-71
2021/08/11 02:52:38;;;;;;;4.47;1.48;;;;;11.00;101407.00;;;;5067024;28;20037;-69
2021/08/11 02:55:07;;;;;;;10.65;1.70;;;;;10.90;101410.00;;;;5067009;28;20109;-68
2021/08/11 02:57:35;;;;;;;11.48;2.13;;;;;10.90;101422.00;;;;5067876;28;20020;-71
2021/08/11 03:00:01;;;;;;;9.70;1.40;;;;;10.90;101410.00;;;;5048201;28;20028;-70
2021/08/11 03:02:28;;;;;;;6.63;1.20;;;;;10.80;101413.00;;;;5066575;28;20407;-73
2021/08/11 03:04:55;;;;;;;10.70;1.67;;;;;10.90;101422.00;;;;5066507;28;20039;-69
2021/08/11 03:07:22;;;;;;;7.15;1.50;;;;;10.80;101430.00;;;;5066407;28;20067;-70
2021/08/11 03:09:50;;;;;;;9.32;1.55;;;;;10.90;101418.00;;;;5066400;28;20028;-71
2021/08/11 03:12:18;;;;;;;10.65;1.67;;;;;10.90;101428.00;;;;5066394;28;20039;-72
2021/08/11 03:14:46;;;;;;;14.80;1.92;;;;;10.90;101427.00;;;;5066546;28;20029;-70
2021/08/11 03:17:16;;;;;;;11.75;1.40;;;;;10.90;101428.00;;;;5065753;28;20051;-72
2021/08/11 03:19:44;;;;;;;9.52;1.63;;;;;10.90;101409.00;;;;5066116;28;20124;-68
2021/08/11 03:22:11;;;;;;;10.85;1.60;;;;;10.80;101407.00;;;;5066440;28;20693;-72
2021/08/11 03:24:39;;;;;;;8.73;1.60;;;;;10.80;101422.00;;;;5066107;28;20032;-69
2021/08/11 03:27:06;;;;;;;14.55;1.75;;;;;10.80;101413.00;;;;5065868;28;20094;-69
2021/08/11 03:29:33;;;;;;;12.52;1.73;;;;;10.80;101419.00;;;;5066284;28;20033;-71
2021/08/11 03:32:00;;;;;;;8.85;1.50;;;;;10.80;101422.00;;;;5066203;28;20086;-70
2021/08/11 03:34:28;;;;;;;7.60;1.35;;;;;10.80;101419.00;;;;5066064;28;20429;-70
2021/08/11 03:36:55;;;;;;;12.05;1.67;;;;;10.90;101429.00;;;;5065733;28;20125;-71
2021/08/11 03:39:22;;;;;;;14.48;1.80;;;;;10.80;101422.00;;;;5066115;28;20025;-70
2021/08/11 03:41:48;;;;;;;10.73;1.55;;;;;10.80;101433.00;;;;5066034;28;20122;-72
2021/08/11 03:44:15;;;;;;;10.25;1.50;;;;;10.80;101422.00;;;;5066643;28;20396;-70
2021/08/11 03:46:42;;;;;;;8.15;1.40;;;;;10.70;101409.00;;;;5066104;28;20108;-70
2021/08/11 03:49:08;;;;;;;13.65;1.73;;;;;10.70;101431.00;;;;5066220;28;20768;-69
2021/08/11 03:51:35;;;;;;;8.32;1.58;;;;;10.70;101427.00;;;;5065100;28;20029;-73
2021/08/11 03:54:02;;;;;;;10.73;1.20;;;;;10.70;101439.00;;;;5065729;28;20029;-73
2021/08/11 03:56:28;;;;;;;6.85;1.02;;;;;10.70;101431.00;;;;5066179;28;20996;-70
2021/08/11 03:58:55;;;;;;;8.40;1.25;;;;;10.70;101419.00;;;;5065760;28;20052;-73
2021/08/11 04:01:22;;;;;;;8.77;1.38;;;;;10.70;101423.00;;;;5048654;28;20032;-71
2021/08/11 04:03:48;;;;;;;9.13;1.42;;;;;10.60;101429.00;;;;5046406;28;20067;-73
2021/08/11 04:06:15;;;;;;;6.57;1.08;;;;;10.70;101436.00;;;;5046178;28;20048;-70
2021/08/11 04:08:42;;;;;;;10.23;1.20;;;;;10.60;101435.00;;;;5046015;28;20073;-70
2021/08/11 04:11:09;;;;;;;11.15;1.45;;;;;10.60;101436.00;;;;5046025;28;20052;-70
2021/08/11 04:13:35;;;;;;;11.80;1.83;;;;;10.60;101441.00;;;;5046126;28;20052;-70
2021/08/11 04:16:02;;;;;;;11.05;1.33;;;;;10.60;101452.00;;;;5045733;28;20494;-70
2021/08/11 04:18:28;;;;;;;8.10;1.15;;;;;10.60;101448.00;;;;5045671;28;20115;-70
2021/08/11 04:20:55;;;;;;;10.48;1.40;;;;;10.60;101452.00;;;;5045912;28;20087;-71
2021/08/11 04:23:22;;;;;;;10.48;1.38;;;;;10.70;101449.00;;;;5045242;28;20033;-70
2021/08/11 04:25:49;;;;;;;11.07;1.17;;;;;10.70;101446.00;;;;5046083;28;20021;-72
2021/08/11 04:28:15;;;;;;;9.75;1.20;;;;;10.60;101444.00;;;;5046455;28;20046;-73
2021/08/11 04:30:42;;;;;;;7.90;1.90;;;;;10.60;101429.00;;;;5049874;28;20055;-70
2021/08/11 04:33:09;;;;;;;12.25;1.40;;;;;10.60;101443.00;;;;5050024;28;20025;-70
2021/08/11 04:35:39;;;;;;;10.38;1.52;;;;;10.60;101439.00;;;;5049456;28;20029;-71
2021/08/11 04:38:06;;;;;;;9.70;1.70;;;;;10.60;101440.00;;;;5049460;28;20049;-71
2021/08/11 04:40:35;;;;;;;11.27;1.25;;;;;10.60;101426.00;;;;5049235;28;20032;-71
2021/08/11 04:43:02;;;;;;;6.80;1.20;;;;;10.60;101441.00;;;;5049750;28;20423;-72
2021/08/11 04:45:28;;;;;;;15.13;1.88;;;;;10.60;101419.00;;;;5048836;28;20499;-69
2021/08/11 04:47:55;;;;;;;15.93;1.67;;;;;10.60;101425.00;;;;5048990;28;20407;-70
2021/08/11 04:50:23;;;;;;;9.63;1.52;;;;;10.60;101426.00;;;;5049011;28;20021;-68
2021/08/11 04:52:49;;;;;;;10.40;1.67;;;;;10.70;101417.00;;;;5049420;28;20468;-69
2021/08/11 04:55:16;;;;;;;10.30;1.65;;;;;10.70;101430.00;;;;5048918;28;20032;-70
2021/08/11 04:57:43;;;;;;;14.85;1.52;;;;;10.60;101426.00;;;;5049525;28;20040;-70
2021/08/11 05:00:10;;;;;;;9.07;1.30;;;;;10.60;101432.00;;;;5055583;28;20064;-72
2021/08/11 05:02:37;;;;;;;6.65;1.00;;;;;10.60;101442.00;;;;5068344;28;20477;-72
2021/08/11 05:05:06;;;;;;;10.13;1.20;;;;;10.60;101431.00;;;;5068145;28;20029;-72
2021/08/11 05:07:32;;;;;;;9.40;1.55;;;;;10.60;101436.00;;;;5068521;28;20048;-72
2021/08/11 05:10:00;;;;;;;16.48;1.92;;;;;10.60;101452.00;;;;5068667;28;20040;-69
2021/08/11 05:12:27;;;;;;;9.60;1.67;;;;;10.60;101435.00;;;;5068911;28;20510;-72
2021/08/11 05:14:54;;;;;;;10.63;1.63;;;;;10.60;101432.00;;;;5068365;28;20483;-72
2021/08/11 05:17:22;;;;;;;7.07;1.38;;;;;10.60;101438.00;;;;5067866;28;20036;-69
2021/08/11 05:19:53;;;;;;;9.27;1.48;;;;;10.60;101419.00;;;;5068666;28;20074;-73
2021/08/11 05:22:22;;;;;;;10.55;1.58;;;;;10.60;101414.00;;;;5068660;28;20066;-69
2021/08/11 05:24:49;;;;;;;8.65;1.50;;;;;10.60;101417.00;;;;5068678;28;20028;-71
2021/08/11 05:27:16;;;;;;;7.28;1.20;;;;;10.60;101427.00;;;;5068586;28;20025;-69
2021/08/11 05:29:44;;;;;;;10.68;1.42;;;;;10.60;101411.00;;;;5068732;28;20043;-71
2021/08/11 05:32:13;;;;;;;7.88;1.50;;;;;10.60;101432.00;;;;5067582;28;20060;-70
2021/08/11 05:34:39;;;;;;;11.73;1.60;;;;;10.60;101421.00;;;;5068096;28;20380;-70
2021/08/11 05:37:06;;;;;;;13.73;1.40;;;;;10.60;101435.00;;;;5068082;28;20051;-73
2021/08/11 05:39:32;;;;;;;7.82;1.45;;;;;10.60;101435.00;;;;5067996;28;20032;-70
2021/08/11 05:41:59;;;;;;;8.52;1.45;;;;;10.60;101437.00;;;;5068293;28;20028;-68
2021/08/11 05:44:26;;;;;;;7.70;1.30;;;;;10.60;101416.00;;;;5067915;28;20028;-72
2021/08/11 05:46:52;;;;;;;10.80;1.48;;;;;10.60;101428.00;;;;5068048;28;20082;-69
2021/08/11 05:49:19;;;;;;;13.85;1.77;;;;;10.60;101440.00;;;;5067957;28;20487;-70
2021/08/11 05:51:46;;;;;;;9.27;1.42;;;;;10.60;101436.00;;;;5067741;28;20514;-69
2021/08/11 05:54:13;;;;;;;11.60;1.40;;;;;10.60;101441.00;;;;5068131;28;20568;-71
2021/08/11 05:56:40;;;;;;;7.82;1.83;;;;;10.70;101440.00;;;;5068165;28;20507;-70
2021/08/11 05:59:07;;;;;;;10.75;1.45;;;;;10.60;101451.00;;;;5067482;28;20054;-71
2021/08/11 06:01:33;;;;;;;12.57;1.63;;;;;10.60;101426.00;;;;5048631;28;20067;-72
2021/08/11 06:04:04;;;;;;;15.40;1.58;;;;;10.50;101443.00;;;;5047451;28;20029;-69
2021/08/11 06:06:32;;;;;;;15.30;1.63;;;;;10.50;101424.00;;;;5047497;28;20132;-72
2021/08/11 06:08:59;;;;;;;6.63;1.30;;;;;10.50;101432.00;;;;5047677;28;20035;-70
2021/08/11 06:11:25;;;;;;;13.65;1.85;;;;;10.50;101445.00;;;;5047395;28;20152;-68
2021/08/11 06:13:52;;;;;;;15.52;1.83;;;;;10.60;101445.00;;;;5047494;28;20389;-72
2021/08/11 06:16:19;;;;;;;6.75;1.63;;;;;10.50;101422.00;;;;5047611;28;20036;-70
2021/08/11 06:18:45;;;;;;;5.97;1.40;;;;;10.60;101446.00;;;;5046898;28;20028;-68
2021/08/11 06:21:12;;;;;;;10.70;1.65;;;;;10.50;101451.00;;;;5046836;28;20033;-71
2021/08/11 06:23:39;;;;;;;9.80;2.30;;;;;10.50;101436.00;;;;5047181;28;20029;-70
2021/08/11 06:26:05;;;;;;;12.23;1.58;;;;;10.50;101441.00;;;;5047095;28;20033;-71
2021/08/11 06:28:32;;;;;;;9.32;1.58;;;;;10.50;101421.00;;;;5047250;28;20040;-72
2021/08/11 06:30:59;;;;;;;12.23;1.55;;;;;10.50;101416.00;;;;5047270;28;20032;-72
2021/08/11 06:33:25;;;;;;;16.80;2.00;;;;;10.40;101424.00;;;;5047470;28;20058;-71
2021/08/11 06:35:52;;;;;;;7.78;1.50;;;;;10.40;101431.00;;;;5047214;28;20111;-72
2021/08/11 06:38:18;;;;;;;10.52;1.23;;;;;10.50;101435.00;;;;5046711;28;20476;-71
2021/08/11 06:40:45;;;;;;;12.00;1.50;;;;;10.40;101416.00;;;;5046206;28;20029;-71
2021/08/11 06:43:12;;;;;;;11.27;1.70;;;;;10.40;101430.00;;;;5046926;28;20111;-71
2021/08/11 06:45:39;;;;;;;11.95;1.65;;;;;10.40;101425.00;;;;5046605;28;20503;-70
2021/08/11 06:48:06;;;;;;;23.10;2.22;;;;;10.50;101414.00;;;;5046342;28;20031;-73
2021/08/11 06:50:33;;;;;;;13.57;1.67;;;;;10.50;101415.00;;;;5046418;28;20452;-70
2021/08/11 06:52:59;;;;;;;8.05;1.95;;;;;10.50;101414.00;;;;5046603;28;20021;-70
2021/08/11 06:55:26;;;;;;;11.25;1.75;;;;;10.50;101413.00;;;;5046134;28;20064;-71
2021/08/11 06:57:53;;;;;;;10.45;1.58;;;;;10.50;101442.00;;;;5047346;28;20127;-71
2021/08/11 07:00:19;;;;;;;6.82;1.13;;;;;10.40;101436.00;;;;5054925;28;20119;-71
2021/08/11 07:02:47;;;;;;;11.45;2.10;;;;;10.40;101422.00;;;;5066626;28;20028;-71
2021/08/11 07:05:14;;;;;;;7.18;1.42;;;;;10.40;101412.00;;;;5066771;28;20036;-71
2021/08/11 07:07:41;;;;;;;9.40;1.38;;;;;10.40;101420.00;;;;5066447;28;20053;-69
2021/08/11 07:10:11;;;;;;;8.18;1.15;;;;;10.40;101420.00;;;;5065766;28;20134;-70
2021/08/11 07:12:38;;;;;;;17.73;2.45;;;;;10.40;101401.00;;;;5066558;28;20028;-71
2021/08/11 07:15:07;;;;;;;8.60;1.30;;;;;10.40;101402.00;;;;5066917;28;20041;-70
2021/08/11 07:17:34;;;;;;;10.95;1.75;;;;;10.40;101415.00;;;;5066540;28;20024;-72
2021/08/11 07:20:00;;;;;;;14.55;1.90;;;;;10.40;101422.00;;;;5066875;28;20067;-71
2021/08/11 07:22:27;;;;;;;11.25;2.05;;;;;10.40;101435.00;;;;5065994;28;20067;-71
2021/08/11 07:24:54;;;;;;;13.93;1.60;;;;;10.30;101427.00;;;;5066484;28;20032;-73
2021/08/11 07:27:20;;;;;;;13.13;1.35;;;;;10.30;101418.00;;;;5066790;28;20036;-71
2021/08/11 07:29:47;;;;;;;10.25;1.88;;;;;10.20;101431.00;;;;5066531;28;20131;-68
2021/08/11 07:32:14;;;;;;;13.45;1.65;;;;;10.20;101411.00;;;;5066576;28;20059;-70
2021/08/11 07:34:41;;;;;;;11.93;2.00;;;;;10.20;101439.00;;;;5065659;28;20048;-72
2021/08/11 07:37:08;;;;;;;11.77;1.30;;;;;10.20;101429.00;;;;5065976;28;20090;-69
2021/08/11 07:39:35;;;;;;;8.02;1.23;;;;;10.20;101436.00;;;;5066578;28;20470;-71
2021/08/11 07:42:01;;;;;;;13.00;1.77;;;;;10.20;101432.00;;;;5066149;28;20099;-72
2021/08/11 07:44:28;;;;;;;6.20;1.30;;;;;10.20;101428.00;;;;5066911;28;20093;-69
2021/08/11 07:46:55;;;;;;;17.35;1.65;;;;;10.20;101463.00;;;;5066273;28;20028;-72
2021/08/11 07:49:21;;;;;;;14.07;1.55;;;;;10.10;101455.00;;;;5065785;28;20039;-74
2021/08/11 07:51:48;;;;;;;12.98;1.75;;;;;10.10;101435.00;;;;5066408;28;20060;-73
2021/08/11 07:54:14;;;;;;;9.93;1.42;;;;;10.10;101442.00;;;;5066104;28;20036;-68
2021/08/11 07:56:41;;;;;;;10.63;1.30;;;;;10.00;101460.00;;;;5066005;28;20085;-72
2021/08/11 07:59:08;;;;;;;7.70;1.38;;;;;10.00;101450.00;;;;5065676;28;20029;-70
2021/08/11 08:01:34;;;;;;;16.30;1.45;;;;;10.00;101441.00;;;;5046902;28;20036;-70
2021/08/11 08:04:01;;;;;;;9.80;1.52;;;;;9.90;101447.00;;;;5047637;28;20031;-73
2021/08/11 08:06:27;;;;;;;20.33;1.92;;;;;9.90;101444.00;;;;5049414;28;20072;-71
2021/08/11 08:08:54;;;;;;;18.38;2.03;;;;;9.80;101449.00;;;;5050285;28;20392;-72
2021/08/11 08:11:21;;;;;;;12.02;1.88;;;;;9.70;101467.00;;;;5049788;28;20033;-69
2021/08/11 08:13:48;;;;;;;11.57;2.22;;;;;9.70;101466.00;;;;5049499;28;20392;-69
2021/08/11 08:16:16;;;;;;;14.65;2.25;;;;;9.60;101463.00;;;;5049465;28;20041;-70
2021/08/11 08:18:43;;;;;;;13.70;1.67;;;;;9.60;101462.00;;;;5048924;28;20827;-73
2021/08/11 08:21:10;;;;;;;16.63;1.80;;;;;9.60;101473.00;;;;5049483;28;20504;-71
2021/08/11 08:23:37;;;;;;;15.05;1.40;;;;;9.60;101476.00;;;;5049858;28;20045;-69
2021/08/11 08:26:03;;;;;;;11.40;1.60;;;;;9.60;101473.00;;;;5049595;28;20044;-72
2021/08/11 08:28:30;;;;;;;17.25;1.80;;;;;9.60;101491.00;;;;5049210;28;20130;-70
2021/08/11 08:30:57;;;;;;;9.13;1.38;;;;;9.50;101483.00;;;;5049292;28;20025;-72
2021/08/11 08:33:23;;;;;;;11.38;1.40;;;;;9.60;101480.00;;;;5049446;28;20028;-73
2021/08/11 08:35:50;;;;;;;9.82;1.38;;;;;9.50;101478.00;;;;5049195;28;20029;-73
2021/08/11 08:38:19;;;;;;;14.95;1.83;;;;;9.60;101466.00;;;;5049665;28;20064;-73
2021/08/11 08:40:47;;;;;;;13.63;1.60;;;;;9.60;101501.00;;;;5049223;28;20037;-72
2021/08/11 08:43:15;;;;;;;12.60;1.40;;;;;9.70;101502.00;;;;5049028;28;20029;-70
2021/08/11 08:45:44;;;;;;;17.27;1.83;;;;;9.70;101479.00;;;;5048677;28;20402;-72
2021/08/11 08:48:11;;;;;;;12.15;1.63;;;;;9.70;101492.00;;;;5048852;28;20029;-71
2021/08/11 08:50:39;;;;;;;13.43;1.80;;;;;9.60;101496.00;;;;5048931;28;20120;-71
2021/08/11 08:53:08;;;;;;;11.10;1.38;;;;;9.60;101506.00;;;;5049349;28;20440;-70
2021/08/11 08:55:36;;;;;;;13.15;1.67;;;;;9.70;101502.00;;;;5048912;28;20033;-72
2021/08/11 08:58:04;;;;;;;12.00;1.60;;;;;9.70;101511.00;;;;5047683;28;20021;-71
2021/08/11 09:00:33;;;;;;;11.90;1.42;;;;;9.70;101504.00;;;;5058515;28;20503;-72
2021/08/11 09:02:59;;;;;;;8.48;1.80;;;;;9.70;101522.00;;;;5068883;28;20501;-73
2021/08/11 09:05:26;;;;;;;12.02;1.90;;;;;9.70;101522.00;;;;5069137;28;20024;-70
2021/08/11 09:07:53;;;;;;;13.00;2.40;;;;;9.80;101531.00;;;;5068544;28;20052;-73
2021/08/11 09:10:29;;;;;;;12.40;1.70;;;;;9.80;101526.00;;;;5068652;28;20099;-72
2021/08/11 09:13:06;;;;;;;9.98;1.25;;;;;9.70;101514.00;;;;5068238;28;20142;-72
2021/08/11 09:15:37;;;;;;;11.77;1.58;;;;;9.70;101519.00;;;;5067652;28;20047;-70
2021/08/11 09:18:29;;;;;;;10.32;1.80;;;;;9.70;101549.00;;;;5068792;28;20056;-73
2021/08/11 09:21:09;;;;;;;14.63;1.60;;;;;9.70;101536.00;;;;5064508;28;20091;-72
2021/08/11 09:23:36;;;;;;;8.60;1.35;;;;;9.70;101556.00;;;;5068731;28;20040;-70
2021/08/11 09:26:05;;;;;;;20.42;2.33;;;;;9.80;101555.00;;;;5068553;28;20655;-71
2021/08/11 09:28:34;;;;;;;8.60;1.58;;;;;9.80;101543.00;;;;5068157;28;20035;-71
2021/08/11 09:31:19;;;;;;;12.45;2.05;;;;;9.80;101533.00;;;;5067965;28;20396;-73
2021/08/11 09:33:50;;;;;;;16.88;1.60;;;;;9.80;101545.00;;;;5068107;28;20043;-68
2021/08/11 09:36:17;;;;;;;10.40;1.48;;;;;9.80;101557.00;;;;5066791;28;20068;-71
2021/08/11 09:39:06;;;;;;;9.02;1.20;;;;;9.80;101571.00;;;;5067181;28;20029;-69
2021/08/11 09:41:33;;;;;;;10.00;1.30;;;;;9.80;101554.00;;;;5051118;28;20428;-71
2021/08/11 09:44:11;;;;;;;9.73;1.52;;;;;9.80;101566.00;;;;5066618;28;20021;-70
2021/08/11 09:46:40;;;;;;;18.35;1.52;;;;;9.80;101565.00;;;;5068293;28;20090;-69
2021/08/11 09:49:32;;;;;;;18.08;1.40;;;;;9.80;101578.00;;;;5067105;28;20136;-71
2021/08/11 09:52:02;;;;;;;11.88;2.13;;;;;9.90;101569.00;;;;5063046;28;20119;-71
2021/08/11 09:54:30;;;;;;;12.82;1.67;;;;;9.80;101576.00;;;;5067086;28;20119;-71
2021/08/11 09:56:57;;;;;;;16.58;1.85;;;;;9.80;101578.00;;;;5066752;28;20034;-71
2021/08/11 09:59:25;;;;;;;17.35;2.15;;;;;9.70;101568.00;;;;5066320;28;20032;-70
2021/08/11 10:01:51;;;;;;;12.18;1.88;;;;;9.70;101573.00;;;;5048101;28;20037;-68
2021/08/11 10:04:20;;;;;;;13.45;1.90;;;;;9.80;101576.00;;;;5047643;28;20057;-69
2021/08/11 10:06:47;;;;;;;9.25;1.55;;;;;9.80;101584.00;;;;5047577;28;20403;-70
2021/08/11 10:09:25;;;;;;;14.63;2.03;;;;;9.80;101575.00;;;;5047422;28;20040;-70
2021/08/11 10:11:53;;;;;;;6.68;1.40;;;;;9.70;101589.00;;;;5047857;28;20116;-70
2021/08/11 10:14:27;;;;;;;8.63;1.25;;;;;9.70;101591.00;;;;5047148;28;20375;-71
2021/08/11 10:16:56;;;;;;;9.35;1.63;;;;;9.70;101597.00;;;;5047026;28;20563;-71
2021/08/11 10:19:24;;;;;;;11.35;1.65;;;;;9.70;101614.00;;;;5047014;28;20097;-72
2021/08/11 10:21:57;;;;;;;13.70;2.17;;;;;9.70;101589.00;;;;5046180;28;20064;-69
2021/08/11 10:24:24;;;;;;;9.55;1.55;;;;;9.70;101595.00;;;;5046568;28;20086;-70
2021/08/11 10:26:52;;;;;;;16.67;1.70;;;;;9.80;101605.00;;;;5046171;28;20040;-71
2021/08/11 10:29:24;;;;;;;10.95;1.40;;;;;9.90;101626.00;;;;5045661;28;20025;-68
2021/08/11 10:31:50;;;;;;;;;;;;;9.90;101616.00;;;;5045328;28;20440;-71
2021/08/11 10:34:18;;;;;;;8.32;1.48;;;;;9.90;101636.00;;;;5046950;28;20481;-71
2021/08/11 10:36:46;;;;;;;7.30;1.20;;;;;9.90;101623.00;;;;5046945;28;20021;-69
2021/08/11 10:39:14;;;;;;;8.02;1.20;;;;;10.00;101637.00;;;;5046681;28;20041;-71
2021/08/11 10:41:42;;;;;;;7.53;1.25;;;;;10.00;101614.00;;;;5046628;28;20028;-69
2021/08/11 10:44:18;;;;;;;13.48;2.28;;;;;10.20;101639.00;;;;5045295;28;20112;-70
2021/08/11 10:46:48;;;;;;;7.15;1.30;;;;;10.30;101624.00;;;;5046085;28;20029;-70
2021/08/11 10:49:19;;;;;;;8.43;1.60;;;;;10.30;101620.00;;;;5047396;28;21156;-71
2021/08/11 10:51:50;;;;;;;8.52;1.17;;;;;10.30;101632.00;;;;5046782;28;20487;-71
2021/08/11 10:54:18;;;;;;;13.27;1.60;;;;;10.40;101638.00;;;;5046784;28;20037;-72
2021/08/11 10:56:52;;;;;;;11.43;1.60;;;;;10.30;101652.00;;;;5046732;28;20161;-70
2021/08/11 10:59:26;;;;;;;9.13;1.30;;;;;10.50;101648.00;;;;5046954;28;20037;-70
2021/08/11 11:01:54;;;;;;;8.00;1.98;;;;;10.50;101627.00;;;;5066755;28;20078;-71
2021/08/11 11:04:40;;;;;;;6.47;1.45;;;;;10.60;101643.00;;;;5066749;28;20089;-72
2021/08/11 11:07:13;;;;;;;6.25;1.30;;;;;10.70;101665.00;;;;5066202;28;20056;-70
2021/08/11 11:09:41;;;;;;;6.28;1.92;;;;;10.70;101649.00;;;;5066154;28;20621;-69
2021/08/11 11:12:17;;;;;;;6.13;1.33;;;;;10.70;101673.00;;;;5066409;28;20415;-71
2021/08/11 11:14:45;;;;;;;10.38;1.73;;;;;10.60;101663.00;;;;5066464;28;20605;-71
2021/08/11 11:17:15;;;;;;;16.90;1.65;;;;;10.60;101666.00;;;;5066359;28;20040;-70
2021/08/11 11:20:03;;;;;;;11.65;1.92;;;;;10.90;101648.00;;;;5066418;28;20541;-71
2021/08/11 11:22:49;;;;;;;14.43;1.90;;;;;11.30;101645.00;;;;5066431;28;20037;-69
2021/08/11 11:25:18;;;;;;;10.32;1.88;;;;;11.30;101656.00;;;;5066492;28;20025;-71
2021/08/11 11:27:44;;;;;;;7.15;1.67;;;;;11.90;101664.00;;;;5066078;28;20080;-71
2021/08/11 11:30:34;;;;;;;6.03;1.40;;;;;11.90;101657.00;;;;5065694;28;20052;-70
2021/08/11 11:33:19;;;;;;;8.10;1.60;;;;;11.60;101675.00;;;;5053670;28;20049;-70
2021/08/11 11:35:46;;;;;;;11.35;1.92;;;;;11.60;101662.00;;;;5066141;28;20025;-68
2021/08/11 11:38:14;;;;;;;10.02;1.83;;;;;11.70;101677.00;;;;5068115;28;20103;-70
2021/08/11 11:40:56;;;;;;;10.23;1.85;;;;;15.40;101560.00;;;;5069428;28;20036;-71
2021/08/11 11:43:23;;;;;;;10.00;2.22;;;;;14.60;101528.00;;;;5070726;28;20440;-71
2021/08/11 11:45:50;;;;;;;15.80;2.03;;;;;16.10;101609.00;;;;5070039;28;20095;-71
2021/08/11 11:48:19;;;;;;;7.25;1.80;;;;;14.10;101476.00;;;;5069911;28;20090;-72
2021/08/11 11:51:00;;;;;;;6.60;1.60;;;;;15.80;101630.00;;;;5070266;28;20040;-70
2021/08/11 11:53:35;;;;;;;12.68;2.63;;;;;15.10;101631.00;;;;5070335;28;20418;-69
2021/08/11 11:56:11;;;;;;;14.55;2.05;;;;;15.00;101640.00;;;;5070329;28;20539;-69
2021/08/11 11:58:46;;;;;;;10.25;1.65;;;;;14.00;101634.00;;;;5069517;28;20079;-71
2021/08/11 12:01:13;;;;;;;10.80;1.60;;;;;13.40;101673.00;;;;5054006;28;20039;-68
2021/08/11 12:03:51;;;;;;;7.35;1.85;;;;;12.90;101691.00;;;;5049868;28;20946;-73
2021/08/11 12:06:45;;;;;;;9.80;2.53;;;;;12.60;101682.00;;;;5051116;28;20076;-73
2021/08/11 12:09:12;;;;;;;10.38;2.28;;;;;12.20;101686.00;;;;5050796;28;20041;-69
2021/08/11 12:11:38;;;;;;;9.82;1.65;;;;;12.50;101678.00;;;;5049521;28;20036;-69
2021/08/11 12:14:06;;;;;;;13.40;1.65;;;;;12.50;101656.00;;;;5049215;28;20415;-71
2021/08/11 12:16:42;;;;;;;10.52;1.88;;;;;13.00;101658.00;;;;5050342;28;20372;-71